createdAt,value
2019-05-17T00:00:37.445Z,3.20
2019-05-17T00:03:06.956Z,3.55
2019-05-17T00:05:37.462Z,3.15
2019-05-17T00:08:07.621Z,2.83
2019-05-17T00:10:37.493Z,3.22
2019-05-17T00:13:07.620Z,5.92
2019-05-17T00:15:37.117Z,5.67
2019-05-17T00:18:06.739Z,5.00
2019-05-17T00:20:37.495Z,4.58
2019-05-17T00:23:07.082Z,3.70
2019-05-17T00:25:36.951Z,3.37
2019-05-17T00:28:07.273Z,3.72
2019-05-17T00:30:37.366Z,3.62
2019-05-17T00:33:07.893Z,4.08
2019-05-17T00:35:37.702Z,2.67
2019-05-17T00:38:07.039Z,2.45
2019-05-17T00:40:36.574Z,2.10
2019-05-17T00:43:06.723Z,2.30
2019-05-17T00:45:37.693Z,2.10
2019-05-17T00:48:06.652Z,2.08
2019-05-17T00:50:37.959Z,2.17
2019-05-17T00:53:07.209Z,2.10
2019-05-17T00:55:36.500Z,1.82
2019-05-17T00:58:06.723Z,2.10
2019-05-17T01:00:37.685Z,1.77
2019-05-17T01:03:07.072Z,1.65
2019-05-17T01:05:37.022Z,1.90
2019-05-17T01:08:07.190Z,1.80
2019-05-17T01:10:36.924Z,2.10
2019-05-17T01:13:06.866Z,1.87
2019-05-17T01:15:36.972Z,2.00
2019-05-17T01:18:07.231Z,1.90
2019-05-17T01:20:36.967Z,1.92
2019-05-17T01:23:07.739Z,2.12
2019-05-17T01:25:36.980Z,1.85
2019-05-17T01:28:07.610Z,1.70
2019-05-17T01:30:37.549Z,2.00
2019-05-17T01:33:06.715Z,1.62
2019-05-17T01:35:37.411Z,1.80
2019-05-17T01:38:07.319Z,1.60
2019-05-17T01:40:37.227Z,1.82
2019-05-17T01:43:07.980Z,1.85
2019-05-17T01:45:37.047Z,2.20
2019-05-17T01:48:07.447Z,2.10
2019-05-17T01:50:37.403Z,1.90
2019-05-17T01:53:07.385Z,1.90
2019-05-17T01:55:37.575Z,2.00
2019-05-17T01:58:07.300Z,2.33
2019-05-17T02:00:37.717Z,2.08
2019-05-17T02:03:07.461Z,2.12
2019-05-17T02:05:37.211Z,1.90
2019-05-17T02:08:06.978Z,1.95
2019-05-17T02:10:37.612Z,2.10
2019-05-17T02:13:06.762Z,1.98
2019-05-17T02:15:37.825Z,2.12
2019-05-17T02:18:07.001Z,2.17
2019-05-17T02:20:37.363Z,1.77
2019-05-17T02:23:07.428Z,2.17
2019-05-17T02:25:37.041Z,2.00
2019-05-17T02:28:06.144Z,1.98
2019-05-17T02:30:34.775Z,2.15
2019-05-17T02:33:04.534Z,1.92
2019-05-17T02:35:33.921Z,1.90
2019-05-17T02:38:03.444Z,1.92
2019-05-17T02:40:33.939Z,2.02
2019-05-17T02:43:03.323Z,2.33
2019-05-17T02:45:33.312Z,2.02
2019-05-17T02:48:03.973Z,2.22
2019-05-17T02:50:33.268Z,1.95
2019-05-17T02:53:04.635Z,2.00
2019-05-17T02:55:33.707Z,1.85
2019-05-17T02:58:03.679Z,1.80
2019-05-17T03:00:33.924Z,1.92
2019-05-17T03:03:03.781Z,2.05
2019-05-17T03:05:33.896Z,2.00
2019-05-17T03:08:04.067Z,2.00
2019-05-17T03:10:33.837Z,1.90
2019-05-17T03:13:04.058Z,1.55
2019-05-17T03:15:33.180Z,1.52
2019-05-17T03:18:03.796Z,1.62
2019-05-17T03:20:33.016Z,1.65
2019-05-17T03:23:03.932Z,1.60
2019-05-17T03:25:33.464Z,1.67
2019-05-17T03:28:03.579Z,1.70
2019-05-17T03:30:36.439Z,1.62
2019-05-17T03:33:07.286Z,1.85
2019-05-17T03:35:37.776Z,1.37
2019-05-17T03:38:04.944Z,1.67
2019-05-17T03:41:02.300Z,1.37
2019-05-17T03:43:04.100Z,1.47
2019-05-17T03:45:34.083Z,1.77
2019-05-17T03:48:04.860Z,1.37
2019-05-17T03:50:34.004Z,1.60
2019-05-17T03:53:02.870Z,1.80
2019-05-17T03:55:33.265Z,1.67
2019-05-17T03:58:03.467Z,1.70
2019-05-17T04:00:35.430Z,1.82
2019-05-17T04:03:03.238Z,1.55
2019-05-17T04:05:33.309Z,1.95
2019-05-17T04:08:03.493Z,1.80
2019-05-17T04:10:33.537Z,1.77
2019-05-17T04:13:04.039Z,1.70
2019-05-17T04:15:33.272Z,1.75
2019-05-17T04:18:04.127Z,1.40
2019-05-17T04:20:33.382Z,1.62
2019-05-17T04:23:03.995Z,1.60
2019-05-17T04:25:33.624Z,1.80
2019-05-17T04:28:03.004Z,1.90
2019-05-17T04:30:32.800Z,1.67
2019-05-17T04:33:03.602Z,1.80
2019-05-17T04:35:32.894Z,2.10
2019-05-17T04:38:04.178Z,1.82
2019-05-17T04:40:33.940Z,1.80
2019-05-17T04:43:03.572Z,2.08
2019-05-17T04:45:33.728Z,1.90
2019-05-17T04:48:04.042Z,2.20
2019-05-17T04:50:34.069Z,1.85
2019-05-17T04:53:03.197Z,2.15
2019-05-17T04:55:34.329Z,1.85
2019-05-17T04:58:04.059Z,2.33
2019-05-17T05:00:34.254Z,2.33
2019-05-17T05:03:04.331Z,2.25
2019-05-17T05:05:33.469Z,2.37
2019-05-17T05:08:03.369Z,2.40
2019-05-17T05:10:33.770Z,2.12
2019-05-17T05:13:03.467Z,2.35
2019-05-17T05:15:43.896Z,2.65
2019-05-17T05:18:13.590Z,2.67
2019-05-17T05:20:43.578Z,2.70
2019-05-17T05:23:13.090Z,2.98
2019-05-17T05:25:42.969Z,2.42
2019-05-17T05:28:12.370Z,2.47
2019-05-17T05:30:42.322Z,2.45
2019-05-17T05:33:12.943Z,2.70
2019-05-17T05:35:42.551Z,2.87
2019-05-17T05:38:13.036Z,3.12
2019-05-17T05:40:43.109Z,2.90
2019-05-17T05:43:12.041Z,3.45
2019-05-17T05:45:41.649Z,3.62
2019-05-17T05:48:12.856Z,3.47
2019-05-17T05:50:43.142Z,3.35
2019-05-17T05:53:12.949Z,3.10
2019-05-17T05:55:43.081Z,3.40
2019-05-17T05:58:12.522Z,3.70
2019-05-17T06:00:42.782Z,3.58
2019-05-17T06:03:12.391Z,3.62
2019-05-17T06:05:42.374Z,3.60
2019-05-17T06:08:12.193Z,3.58
2019-05-17T06:10:42.597Z,4.37
2019-05-17T06:13:13.022Z,4.28
2019-05-17T06:15:43.013Z,4.30
2019-05-17T06:18:12.387Z,4.20
2019-05-17T06:20:41.963Z,4.42
2019-05-17T06:23:12.272Z,4.53
2019-05-17T06:25:43.623Z,4.65
2019-05-17T06:28:12.384Z,5.58
2019-05-17T06:30:42.940Z,4.72
2019-05-17T06:33:11.946Z,5.08
2019-05-17T06:35:42.304Z,5.28
2019-05-17T06:38:12.242Z,4.80
2019-05-17T06:40:41.982Z,4.95
2019-05-17T06:43:13.146Z,5.05
2019-05-17T06:45:42.136Z,4.47
2019-05-17T06:48:11.679Z,4.83
2019-05-17T06:50:43.071Z,5.08
2019-05-17T06:53:12.399Z,4.72
2019-05-17T06:55:42.515Z,4.50
2019-05-17T06:58:12.140Z,4.42
2019-05-17T07:00:40.951Z,4.75
2019-05-17T07:03:09.749Z,4.20
2019-05-17T07:05:40.364Z,4.90
2019-05-17T07:08:10.870Z,5.83
2019-05-17T07:10:39.949Z,5.58
2019-05-17T07:13:10.718Z,5.47
2019-05-17T07:15:47.521Z,5.28
2019-05-17T07:18:10.372Z,5.65
2019-05-17T07:20:39.720Z,5.45
2019-05-17T07:23:10.798Z,5.75
2019-05-17T07:25:39.641Z,5.62
2019-05-17T07:28:10.137Z,6.20
2019-05-17T07:30:40.191Z,5.03
2019-05-17T07:33:10.144Z,5.53
2019-05-17T07:35:39.639Z,5.83
2019-05-17T07:38:10.683Z,4.95
2019-05-17T07:40:39.812Z,4.85
2019-05-17T07:43:14.314Z,5.17
2019-05-17T07:45:40.506Z,5.37
2019-05-17T07:48:09.972Z,5.33
2019-05-17T07:50:39.808Z,6.25
2019-05-17T07:53:10.246Z,6.58
2019-05-17T07:55:39.946Z,6.60
2019-05-17T07:58:09.951Z,5.75
2019-05-17T08:00:39.925Z,5.75
2019-05-17T08:03:12.787Z,5.58
2019-05-17T08:05:40.319Z,5.97
2019-05-17T08:08:10.048Z,5.78
2019-05-17T08:10:40.926Z,6.70
2019-05-17T08:13:24.709Z,5.90
2019-05-17T08:15:39.855Z,6.03
2019-05-17T08:18:10.915Z,6.58
2019-05-17T08:20:40.104Z,6.80
2019-05-17T08:23:10.745Z,7.83
2019-05-17T08:25:51.917Z,7.95
2019-05-17T08:28:11.137Z,7.10
2019-05-17T08:30:40.858Z,7.53
2019-05-17T08:33:11.128Z,7.30
2019-05-17T08:35:40.480Z,8.48
2019-05-17T08:38:10.335Z,7.83
2019-05-17T08:40:40.446Z,7.62
2019-05-17T08:43:10.000Z,7.53
2019-05-17T08:45:40.718Z,7.22
2019-05-17T08:48:09.875Z,6.92
2019-05-17T08:50:40.321Z,7.30
2019-05-17T08:53:10.609Z,7.47
2019-05-17T08:55:40.983Z,7.75
2019-05-17T08:58:10.415Z,7.40
2019-05-17T09:00:40.675Z,5.78
2019-05-17T09:03:10.681Z,6.03
2019-05-17T09:05:41.873Z,5.62
2019-05-17T09:08:10.469Z,6.17
2019-05-17T09:10:40.799Z,5.90
2019-05-17T09:13:12.307Z,6.20
2019-05-17T09:15:40.320Z,5.95
2019-05-17T09:18:09.876Z,5.85
2019-05-17T09:20:40.493Z,5.62
2019-05-17T09:23:09.827Z,5.85
2019-05-17T09:25:39.732Z,6.45
2019-05-17T09:28:10.148Z,6.33
2019-05-17T09:30:40.419Z,5.78
2019-05-17T09:33:11.487Z,6.08
2019-05-17T09:35:40.997Z,6.22
2019-05-17T09:38:10.607Z,6.10
2019-05-17T09:40:40.207Z,5.33
2019-05-17T09:43:10.160Z,5.60
2019-05-17T09:45:40.354Z,5.67
2019-05-17T09:48:10.422Z,5.33
2019-05-17T09:50:39.992Z,5.65
2019-05-17T09:53:10.697Z,5.87
2019-05-17T09:55:39.705Z,6.50
2019-05-17T09:58:09.811Z,6.12
2019-05-17T10:00:38.985Z,5.70
2019-05-17T10:03:09.821Z,5.28
2019-05-17T10:05:40.658Z,5.40
2019-05-17T10:08:10.741Z,5.80
2019-05-17T10:10:40.270Z,5.28
2019-05-17T10:13:09.952Z,5.55
2019-05-17T10:15:40.886Z,6.03
2019-05-17T10:18:11.033Z,6.40
2019-05-17T10:20:40.192Z,5.90
2019-05-17T10:23:10.492Z,6.17
2019-05-17T10:25:40.179Z,5.50
2019-05-17T10:28:10.039Z,5.47
2019-05-17T10:30:40.260Z,4.78
2019-05-17T10:33:09.906Z,5.03
2019-05-17T10:35:40.781Z,4.87
2019-05-17T10:38:10.242Z,4.70
2019-05-17T10:40:40.877Z,4.92
2019-05-17T10:43:10.294Z,4.92
2019-05-17T10:45:40.009Z,5.30
2019-05-17T10:48:10.290Z,5.55
2019-05-17T10:50:40.769Z,5.20
2019-05-17T10:53:10.301Z,4.95
2019-05-17T10:55:39.811Z,5.03
2019-05-17T10:58:09.934Z,5.10
2019-05-17T11:00:41.445Z,4.92
2019-05-17T11:03:10.163Z,5.08
2019-05-17T11:05:40.183Z,4.85
2019-05-17T11:08:10.826Z,4.70
2019-05-17T11:10:39.726Z,4.72
2019-05-17T11:13:08.809Z,4.83
2019-05-17T11:15:37.428Z,5.33
2019-05-17T11:18:06.382Z,5.37
2019-05-17T11:20:35.035Z,5.47
2019-05-17T11:23:03.807Z,4.85
2019-05-17T11:25:32.533Z,4.58
2019-05-17T11:28:01.144Z,4.55
2019-05-17T11:30:29.808Z,4.47
2019-05-17T11:32:57.623Z,4.87
2019-05-17T11:35:26.359Z,5.40
2019-05-17T11:37:55.115Z,4.62
2019-05-17T11:40:24.016Z,4.58
2019-05-17T11:42:52.625Z,4.45
2019-05-17T11:45:28.204Z,5.30
2019-05-17T11:47:51.702Z,4.85
2019-05-17T11:50:20.608Z,4.40
2019-05-17T11:52:49.264Z,4.97
2019-05-17T11:55:18.991Z,4.83
2019-05-17T11:57:47.678Z,4.72
2019-05-17T12:00:17.400Z,4.60
2019-05-17T12:02:46.064Z,4.53
2019-05-17T12:05:15.174Z,5.67
2019-05-17T12:07:43.837Z,5.17
2019-05-17T12:10:13.798Z,6.45
2019-05-17T12:12:42.458Z,5.60
2019-05-17T12:15:11.406Z,4.78
2019-05-17T12:17:40.096Z,4.67
2019-05-17T12:20:09.680Z,4.95
2019-05-17T12:22:38.334Z,4.33
2019-05-17T12:25:07.861Z,4.12
2019-05-17T12:27:36.519Z,4.17
2019-05-17T12:30:09.531Z,3.90
2019-05-17T12:32:38.376Z,4.10
2019-05-17T12:35:07.784Z,4.08
2019-05-17T12:37:36.402Z,4.87
2019-05-17T12:40:06.743Z,4.60
2019-05-17T12:42:35.398Z,3.65
2019-05-17T12:45:09.189Z,3.87
2019-05-17T12:47:37.852Z,3.85
2019-05-17T12:50:10.215Z,4.03
2019-05-17T12:52:39.415Z,3.67
2019-05-17T12:55:08.264Z,3.15
2019-05-17T12:57:36.922Z,3.52
2019-05-17T13:00:07.848Z,3.50
2019-05-17T13:02:36.513Z,3.65
2019-05-17T13:05:06.318Z,3.17
2019-05-17T13:07:35.097Z,3.15
2019-05-17T13:10:06.942Z,3.40
2019-05-17T13:12:35.555Z,3.65
2019-05-17T13:15:08.104Z,3.12
2019-05-17T13:17:36.805Z,3.02
2019-05-17T13:20:08.636Z,3.60
2019-05-17T13:22:37.255Z,3.85
2019-05-17T13:25:08.151Z,3.60
2019-05-17T13:27:39.069Z,3.55
2019-05-17T13:30:09.804Z,3.75
2019-05-17T13:32:38.418Z,3.15
2019-05-17T13:35:08.596Z,3.62
2019-05-17T13:37:37.209Z,3.52
2019-05-17T13:40:09.766Z,3.42
2019-05-17T13:42:38.445Z,3.72
2019-05-17T13:45:08.211Z,3.47
2019-05-17T13:47:36.884Z,3.87
2019-05-17T13:50:07.502Z,3.22
2019-05-17T13:52:36.189Z,3.42
2019-05-17T13:55:08.265Z,3.67
2019-05-17T13:57:36.874Z,3.30
2019-05-17T14:00:07.150Z,3.60
2019-05-17T14:02:35.852Z,3.62
2019-05-17T14:05:08.053Z,3.67
2019-05-17T14:07:36.766Z,3.58
2019-05-17T14:10:07.227Z,3.60
2019-05-17T14:12:35.921Z,3.37
2019-05-17T14:15:09.122Z,3.33
2019-05-17T14:17:37.787Z,3.77
2019-05-17T14:20:07.818Z,3.70
2019-05-17T14:22:36.431Z,3.65
2019-05-17T14:25:08.681Z,3.70
2019-05-17T14:27:37.408Z,3.45
2019-05-17T14:30:09.892Z,3.80
2019-05-17T14:32:38.546Z,4.28
2019-05-17T14:35:07.624Z,4.00
2019-05-17T14:37:36.234Z,3.70
2019-05-17T14:40:07.818Z,3.77
2019-05-17T14:42:36.426Z,3.83
2019-05-17T14:45:09.163Z,3.80
2019-05-17T14:47:37.814Z,3.72
2019-05-17T14:50:08.255Z,3.85
2019-05-17T14:52:36.873Z,3.65
2019-05-17T14:55:05.972Z,3.87
2019-05-17T14:57:34.589Z,3.90
2019-05-17T15:00:04.610Z,3.62
2019-05-17T15:02:33.227Z,3.77
2019-05-17T15:05:02.828Z,4.00
2019-05-17T15:07:32.162Z,3.87
2019-05-17T15:10:02.186Z,3.90
2019-05-17T15:12:30.910Z,3.95
2019-05-17T15:14:59.526Z,4.25
2019-05-17T15:17:28.193Z,4.03
2019-05-17T15:19:56.877Z,3.67
2019-05-17T15:22:25.540Z,4.12
2019-05-17T15:24:54.160Z,3.90
2019-05-17T15:27:22.828Z,3.87
2019-05-17T15:29:51.512Z,4.30
2019-05-17T15:32:20.175Z,4.53
2019-05-17T15:34:48.880Z,4.12
2019-05-17T15:37:17.564Z,4.47
2019-05-17T15:39:46.178Z,4.65
2019-05-17T15:42:14.937Z,4.60
2019-05-17T15:44:43.623Z,4.50
2019-05-17T15:47:12.292Z,4.12
2019-05-17T15:49:40.945Z,4.53
2019-05-17T15:52:09.651Z,3.90
2019-05-17T15:54:38.373Z,4.50
2019-05-17T15:57:07.052Z,4.35
2019-05-17T15:59:35.669Z,4.25
2019-05-17T16:02:04.433Z,4.08
2019-05-17T16:04:33.093Z,4.37
2019-05-17T16:07:02.413Z,4.60
2019-05-17T16:09:31.101Z,4.20
2019-05-17T16:11:59.783Z,4.17
2019-05-17T16:14:28.396Z,4.37
2019-05-17T16:16:57.017Z,4.28
2019-05-17T16:19:25.687Z,4.12
2019-05-17T16:21:54.304Z,4.55
2019-05-17T16:24:22.916Z,4.37
2019-05-17T16:26:51.581Z,4.42
2019-05-17T16:29:20.200Z,4.50
2019-05-17T16:31:48.861Z,4.72
2019-05-17T16:34:17.597Z,5.25
2019-05-17T16:36:46.210Z,4.62
2019-05-17T16:39:14.896Z,5.70
2019-05-17T16:41:43.510Z,11.08
2019-05-17T16:44:14.586Z,6.47
2019-05-17T16:46:42.653Z,12.88
2019-05-17T16:49:11.376Z,14.50
2019-05-17T16:51:40.098Z,24.87
2019-05-17T16:54:08.716Z,11.97
2019-05-17T16:56:37.372Z,8.95
2019-05-17T16:59:06.133Z,82.82
2019-05-17T17:01:34.799Z,25.30
2019-05-17T17:04:03.751Z,57.60
2019-05-17T17:06:32.495Z,37.00
2019-05-17T17:09:01.182Z,16.45
2019-05-17T17:11:29.996Z,31.65
2019-05-17T17:13:58.619Z,12.73
2019-05-17T17:16:27.366Z,11.08
2019-05-17T17:18:56.056Z,15.32
2019-05-17T17:21:24.761Z,10.15
2019-05-17T17:23:53.446Z,11.55
2019-05-17T17:26:22.198Z,19.17
2019-05-17T17:28:50.900Z,23.32
2019-05-17T17:31:19.990Z,92.72
2019-05-17T17:33:48.667Z,46.73
2019-05-17T17:36:19.416Z,41.68
2019-05-17T17:38:47.726Z,73.40
2019-05-17T17:41:16.416Z,47.48
2019-05-17T17:43:57.341Z,46.60
2019-05-17T17:46:15.483Z,28.47
2019-05-17T17:48:45.923Z,11.25
2019-05-17T17:51:14.826Z,9.38
2019-05-17T17:53:43.499Z,11.00
2019-05-17T17:56:13.657Z,13.38
2019-05-17T17:58:42.515Z,7.85
2019-05-17T18:01:11.206Z,7.15
2019-05-17T18:03:39.822Z,6.35
2019-05-17T18:06:08.494Z,6.62
2019-05-17T18:08:37.105Z,6.25
2019-05-17T18:11:07.191Z,6.33
2019-05-17T18:13:36.688Z,6.30
2019-05-17T18:16:05.468Z,6.60
2019-05-17T18:18:34.147Z,6.33
2019-05-17T18:21:02.935Z,6.53
2019-05-17T18:23:31.550Z,6.53
2019-05-17T18:26:00.732Z,6.50
2019-05-17T18:28:29.549Z,6.30
2019-05-17T18:30:58.210Z,8.58
2019-05-17T18:33:26.828Z,6.62
2019-05-17T18:35:55.494Z,7.03
2019-05-17T18:38:27.293Z,6.65
2019-05-17T18:40:56.006Z,6.42
2019-05-17T18:43:24.666Z,6.17
2019-05-17T18:45:53.279Z,6.53
2019-05-17T18:48:22.016Z,6.50
2019-05-17T18:50:50.654Z,6.45
2019-05-17T18:53:19.315Z,7.17
2019-05-17T18:55:47.973Z,6.65
2019-05-17T18:58:16.583Z,7.35
2019-05-17T19:00:45.890Z,6.70
2019-05-17T19:03:14.506Z,7.15
2019-05-17T19:05:45.264Z,6.65
2019-05-17T19:08:13.511Z,6.67
2019-05-17T19:10:42.504Z,7.10
2019-05-17T19:13:11.170Z,6.67
2019-05-17T19:15:39.867Z,6.83
2019-05-17T19:18:08.483Z,6.95
2019-05-17T19:20:37.147Z,7.05
2019-05-17T19:23:06.427Z,6.58
2019-05-17T19:25:35.084Z,6.53
2019-05-17T19:28:03.868Z,7.00
2019-05-17T19:30:32.533Z,6.83
2019-05-17T19:33:01.183Z,6.60
2019-05-17T19:35:29.893Z,6.85
2019-05-17T19:37:58.558Z,7.15
2019-05-17T19:40:27.222Z,9.85
2019-05-17T19:42:55.916Z,9.15
2019-05-17T19:45:24.590Z,10.58
2019-05-17T19:47:53.214Z,10.50
2019-05-17T19:50:21.987Z,9.50
2019-05-17T19:52:50.697Z,8.08
2019-05-17T19:55:19.361Z,8.50
2019-05-17T19:57:48.089Z,7.72
2019-05-17T20:00:17.518Z,7.95
2019-05-17T20:02:46.543Z,7.55
2019-05-17T20:05:15.605Z,7.40
2019-05-17T20:07:44.268Z,6.97
2019-05-17T20:10:14.281Z,6.97
2019-05-17T20:12:42.944Z,7.75
2019-05-17T20:15:17.782Z,7.33
2019-05-17T20:17:42.397Z,7.65
2019-05-17T20:20:11.662Z,7.92
2019-05-17T20:22:40.403Z,7.47
2019-05-17T20:25:09.459Z,7.25
2019-05-17T20:27:38.124Z,6.75
2019-05-17T20:30:10.729Z,6.80
2019-05-17T20:32:39.393Z,6.47
2019-05-17T20:35:09.491Z,6.60
2019-05-17T20:37:38.192Z,6.47
2019-05-17T20:40:08.918Z,6.92
2019-05-17T20:42:37.742Z,7.05
2019-05-17T20:45:08.058Z,6.80
2019-05-17T20:47:36.755Z,6.28
2019-05-17T20:50:08.425Z,6.65
2019-05-17T20:52:37.038Z,6.53
2019-05-17T20:55:06.268Z,6.75
2019-05-17T20:57:34.943Z,6.70
2019-05-17T21:00:08.076Z,6.37
2019-05-17T21:02:36.894Z,6.78
2019-05-17T21:05:07.781Z,6.35
2019-05-17T21:07:36.452Z,6.95
2019-05-17T21:10:06.425Z,6.15
2019-05-17T21:12:35.046Z,6.33
2019-05-17T21:15:06.303Z,6.47
2019-05-17T21:17:34.979Z,6.72
2019-05-17T21:20:05.703Z,6.28
2019-05-17T21:22:34.367Z,7.03
2019-05-17T21:25:05.006Z,6.58
2019-05-17T21:27:33.996Z,6.42
2019-05-17T21:30:02.965Z,6.87
2019-05-17T21:32:31.597Z,6.40
2019-05-17T21:35:00.340Z,6.70
2019-05-17T21:37:28.947Z,6.95
2019-05-17T21:39:57.681Z,6.83
2019-05-17T21:42:26.296Z,6.92
2019-05-17T21:44:55.037Z,7.08
2019-05-17T21:47:23.655Z,6.78
2019-05-17T21:49:52.408Z,6.50
2019-05-17T21:52:21.077Z,7.25
2019-05-17T21:54:49.693Z,7.05
2019-05-17T21:57:18.359Z,7.17
2019-05-17T21:59:47.026Z,7.25
2019-05-17T22:02:15.687Z,6.83
2019-05-17T22:04:44.612Z,6.22
2019-05-17T22:07:13.284Z,6.37
2019-05-17T22:09:41.998Z,6.55
2019-05-17T22:12:10.613Z,6.83
2019-05-17T22:14:39.272Z,6.22
2019-05-17T22:17:08.276Z,6.65
2019-05-17T22:19:36.934Z,6.35
2019-05-17T22:22:05.669Z,6.62
2019-05-17T22:24:34.283Z,6.35
2019-05-17T22:27:02.947Z,6.87
2019-05-17T22:29:31.566Z,7.08
2019-05-17T22:32:00.222Z,6.45
2019-05-17T22:34:28.841Z,7.10
2019-05-17T22:36:57.500Z,6.90
2019-05-17T22:39:26.114Z,6.72
2019-05-17T22:41:54.780Z,6.92
2019-05-17T22:44:23.561Z,6.78
2019-05-17T22:46:52.226Z,6.80
2019-05-17T22:49:22.140Z,7.30
2019-05-17T22:51:50.921Z,6.90
2019-05-17T22:54:19.629Z,6.97
2019-05-17T22:56:48.366Z,6.67
2019-05-17T22:59:17.023Z,7.17
2019-05-17T23:01:45.707Z,7.72
2019-05-17T23:04:14.429Z,6.22
2019-05-17T23:06:43.045Z,6.60
2019-05-17T23:09:11.704Z,7.30
2019-05-17T23:11:40.323Z,7.42
2019-05-17T23:14:09.072Z,7.10
2019-05-17T23:16:50.463Z,6.45
2019-05-17T23:19:08.141Z,7.05
2019-05-17T23:21:37.467Z,7.12
2019-05-17T23:24:06.747Z,6.92
2019-05-17T23:26:35.803Z,7.25
2019-05-17T23:29:04.668Z,6.65
2019-05-17T23:31:33.331Z,6.95
2019-05-17T23:34:01.995Z,6.92
2019-05-17T23:36:30.611Z,7.50
2019-05-17T23:38:59.275Z,7.45
2019-05-17T23:41:27.888Z,7.70
2019-05-17T23:43:56.551Z,7.53
2019-05-17T23:46:25.267Z,7.12
2019-05-17T23:48:53.881Z,7.70
2019-05-17T23:51:22.542Z,7.45
2019-05-17T23:53:51.162Z,7.15
2019-05-17T23:56:19.824Z,6.95
2019-05-17T23:58:48.519Z,7.70
